createdAt,value
2017-07-07T00:00:45.397Z,29.19
2017-07-07T00:01:44.818Z,29.15
2017-07-07T00:02:45.159Z,29.24
2017-07-07T00:03:45.189Z,29.23
2017-07-07T00:04:45.246Z,29.24
2017-07-07T00:05:45.505Z,29.18
2017-07-07T00:06:45.293Z,29.14
2017-07-07T00:07:45.311Z,29.18
2017-07-07T00:08:45.347Z,29.16
2017-07-07T00:09:45.057Z,29.18
2017-07-07T00:10:45.385Z,29.16
2017-07-07T00:11:45.123Z,29.12
2017-07-07T00:12:45.464Z,29.21
2017-07-07T00:13:45.519Z,29.24
2017-07-07T00:14:45.216Z,29.18
2017-07-07T00:15:45.178Z,29.16
2017-07-07T00:16:45.578Z,29.18
2017-07-07T00:17:45.619Z,29.16
2017-07-07T00:18:45.656Z,29.18
2017-07-07T00:19:45.359Z,29.14
2017-07-07T00:20:45.967Z,29.21
2017-07-07T00:21:45.748Z,29.16
2017-07-07T00:22:45.763Z,29.12
2017-07-07T00:23:45.800Z,29.18
2017-07-07T00:24:45.516Z,29.12
2017-07-07T00:25:46.165Z,29.08
2017-07-07T00:26:45.906Z,29.08
2017-07-07T00:27:45.612Z,29.11
2017-07-07T00:28:45.964Z,29.16
2017-07-07T00:29:45.993Z,29.15
2017-07-07T00:30:45.951Z,29.18
2017-07-07T00:31:45.727Z,29.11
2017-07-07T00:32:45.768Z,29.15
2017-07-07T00:33:45.472Z,29.09
2017-07-07T00:34:46.142Z,29.09
2017-07-07T00:35:46.107Z,29.14
2017-07-07T00:36:45.884Z,29.05
2017-07-07T00:37:45.916Z,29.09
2017-07-07T00:38:46.262Z,29.08
2017-07-07T00:39:45.965Z,29.04
2017-07-07T00:40:46.581Z,29.02
2017-07-07T00:41:46.359Z,29.05
2017-07-07T00:42:46.070Z,29.08
2017-07-07T00:43:46.401Z,29.08
2017-07-07T00:44:46.437Z,29.08
2017-07-07T00:45:46.450Z,29.05
2017-07-07T00:46:46.188Z,28.95
2017-07-07T00:47:46.530Z,28.93
2017-07-07T00:48:46.619Z,28.98
2017-07-07T00:49:46.277Z,28.9
2017-07-07T00:50:46.878Z,29
2017-07-07T00:51:46.658Z,28.96
2017-07-07T00:52:46.373Z,28.95
2017-07-07T00:53:46.712Z,29.04
2017-07-07T00:54:46.429Z,29.02
2017-07-07T00:55:47.078Z,29.02
2017-07-07T00:56:46.803Z,29.02
2017-07-07T00:57:46.848Z,28.98
2017-07-07T00:58:46.548Z,28.92
2017-07-07T00:59:46.905Z,28.92
2017-07-07T01:00:46.846Z,28.86
2017-07-07T01:01:46.947Z,28.83
2017-07-07T01:02:46.997Z,28.85
2017-07-07T01:03:46.690Z,28.85
2017-07-07T01:04:47.059Z,28.95
2017-07-07T01:05:47.338Z,28.92
2017-07-07T01:06:47.115Z,28.86
2017-07-07T01:07:46.503Z,28.86
2017-07-07T01:08:47.173Z,28.89
2017-07-07T01:09:47.194Z,28.93
2017-07-07T01:10:47.238Z,28.85
2017-07-07T01:11:46.935Z,28.88
2017-07-07T01:12:46.976Z,28.93
2017-07-07T01:13:47.334Z,28.9
2017-07-07T01:14:47.350Z,28.88
2017-07-07T01:15:47.382Z,28.89
2017-07-07T01:16:47.416Z,28.93
2017-07-07T01:17:47.124Z,28.89
2017-07-07T01:18:47.473Z,28.86
2017-07-07T01:19:47.494Z,28.88
2017-07-07T01:20:47.223Z,28.86
2017-07-07T01:21:47.255Z,28.88
2017-07-07T01:22:47.596Z,28.9
2017-07-07T01:23:47.305Z,28.86
2017-07-07T01:24:47.662Z,28.88
2017-07-07T01:25:47.050Z,28.9
2017-07-07T01:26:47.713Z,28.89
2017-07-07T01:27:47.744Z,28.88
2017-07-07T01:28:47.781Z,28.86
2017-07-07T01:29:47.802Z,28.92
2017-07-07T01:30:47.520Z,28.81
2017-07-07T01:31:47.544Z,28.9
2017-07-07T01:32:47.940Z,28.83
2017-07-07T01:33:47.613Z,28.88
2017-07-07T01:34:47.966Z,28.86
2017-07-07T01:35:47.986Z,28.93
2017-07-07T01:36:48.016Z,28.89
2017-07-07T01:37:47.736Z,28.9
2017-07-07T01:38:48.081Z,28.89
2017-07-07T01:39:48.114Z,28.92
2017-07-07T01:40:48.142Z,28.93
2017-07-07T01:41:47.851Z,28.85
2017-07-07T01:42:48.207Z,28.83
2017-07-07T01:43:48.234Z,28.88
2017-07-07T01:44:48.267Z,28.88
2017-07-07T01:45:48.291Z,28.86
2017-07-07T01:46:48.328Z,28.89
2017-07-07T01:47:48.361Z,28.89
2017-07-07T01:48:48.066Z,28.93
2017-07-07T01:49:48.097Z,28.93
2017-07-07T01:50:48.127Z,28.86
2017-07-07T01:51:48.161Z,28.78
2017-07-07T01:52:48.513Z,28.93
2017-07-07T01:53:48.541Z,28.9
2017-07-07T01:54:48.247Z,28.88
2017-07-07T01:55:48.603Z,28.86
2017-07-07T01:56:48.305Z,28.92
2017-07-07T01:57:48.337Z,28.86
2017-07-07T01:58:48.047Z,28.86
2017-07-07T01:59:48.718Z,28.83
2017-07-07T02:00:48.761Z,28.83
2017-07-07T02:01:48.780Z,28.78
2017-07-07T02:02:48.848Z,28.78
2017-07-07T02:03:48.838Z,28.77
2017-07-07T02:04:48.868Z,28.8
2017-07-07T02:05:48.887Z,28.74
2017-07-07T02:06:48.929Z,28.81
2017-07-07T02:07:48.953Z,28.76
2017-07-07T02:08:48.990Z,28.67
2017-07-07T02:09:49.019Z,28.73
2017-07-07T02:10:49.052Z,28.74
2017-07-07T02:11:49.082Z,28.73
2017-07-07T02:12:49.114Z,28.71
2017-07-07T02:13:48.822Z,28.7
2017-07-07T02:14:48.847Z,28.76
2017-07-07T02:15:48.880Z,28.77
2017-07-07T02:16:48.909Z,28.73
2017-07-07T02:17:49.261Z,28.77
2017-07-07T02:18:48.971Z,28.74
2017-07-07T02:19:49.320Z,28.76
2017-07-07T02:20:49.031Z,28.76
2017-07-07T02:21:49.385Z,28.78
2017-07-07T02:22:49.090Z,28.74
2017-07-07T02:23:49.434Z,28.71
2017-07-07T02:24:49.473Z,28.76
2017-07-07T02:25:49.180Z,28.73
2017-07-07T02:26:49.201Z,28.68
2017-07-07T02:27:49.570Z,28.7
2017-07-07T02:28:48.952Z,28.73
2017-07-07T02:29:48.987Z,28.76
2017-07-07T02:30:49.333Z,28.77
2017-07-07T02:31:49.625Z,28.68
2017-07-07T02:32:49.399Z,28.74
2017-07-07T02:33:49.759Z,28.74
2017-07-07T02:34:49.771Z,28.73
2017-07-07T02:35:49.497Z,28.8
2017-07-07T02:36:49.818Z,28.73
2017-07-07T02:37:49.546Z,28.77
2017-07-07T02:38:49.896Z,28.7
2017-07-07T02:39:49.596Z,28.71
2017-07-07T02:40:49.957Z,28.73
2017-07-07T02:41:50.229Z,28.7
2017-07-07T02:42:49.702Z,28.73
2017-07-07T02:43:49.721Z,28.73
2017-07-07T02:44:50.076Z,28.73
2017-07-07T02:45:50.113Z,28.7
2017-07-07T02:46:50.441Z,28.71
2017-07-07T02:47:49.840Z,28.74
2017-07-07T02:48:49.879Z,28.74
2017-07-07T02:49:50.224Z,28.73
2017-07-07T02:50:49.937Z,28.76
2017-07-07T02:51:50.549Z,28.71
2017-07-07T02:52:50.322Z,28.76
2017-07-07T02:53:50.350Z,28.78
2017-07-07T02:54:50.059Z,28.73
2017-07-07T02:55:50.408Z,28.77
2017-07-07T02:56:50.682Z,28.71
2017-07-07T02:57:50.151Z,28.68
2017-07-07T02:58:50.178Z,28.71
2017-07-07T02:59:50.519Z,28.71
2017-07-07T03:00:50.240Z,28.73
2017-07-07T03:01:50.550Z,28.67
2017-07-07T03:02:50.298Z,28.71
2017-07-07T03:03:50.648Z,28.74
2017-07-07T03:04:50.356Z,28.68
2017-07-07T03:05:50.698Z,28.7
2017-07-07T03:06:50.990Z,28.7
2017-07-07T03:07:50.459Z,28.7
2017-07-07T03:08:50.795Z,28.71
2017-07-07T03:09:50.833Z,28.7
2017-07-07T03:10:50.862Z,28.7
2017-07-07T03:11:50.822Z,28.7
2017-07-07T03:12:50.914Z,28.68
2017-07-07T03:13:50.311Z,28.74
2017-07-07T03:14:50.972Z,28.68
2017-07-07T03:15:51.005Z,28.73
2017-07-07T03:16:51.344Z,28.7
2017-07-07T03:17:51.067Z,28.62
2017-07-07T03:18:51.095Z,28.76
2017-07-07T03:19:51.132Z,28.68
2017-07-07T03:20:50.522Z,28.61
2017-07-07T03:21:51.186Z,28.66
2017-07-07T03:22:50.895Z,28.73
2017-07-07T03:23:50.600Z,28.73
2017-07-07T03:24:50.967Z,28.66
2017-07-07T03:25:51.305Z,28.68
2017-07-07T03:26:51.018Z,28.71
2017-07-07T03:27:51.358Z,28.67
2017-07-07T03:28:51.076Z,28.66
2017-07-07T03:29:51.429Z,28.7
2017-07-07T03:30:51.450Z,28.71
2017-07-07T03:31:51.162Z,28.68
2017-07-07T03:32:51.202Z,28.67
2017-07-07T03:33:51.220Z,28.73
2017-07-07T03:34:51.577Z,28.73
2017-07-07T03:35:51.289Z,28.68
2017-07-07T03:36:51.640Z,28.67
2017-07-07T03:37:51.343Z,28.73
2017-07-07T03:38:51.700Z,28.68
2017-07-07T03:39:51.732Z,28.73
2017-07-07T03:40:51.758Z,28.7
2017-07-07T03:41:51.467Z,28.61
2017-07-07T03:42:51.815Z,28.66
2017-07-07T03:43:51.847Z,28.67
2017-07-07T03:44:51.556Z,28.67
2017-07-07T03:45:51.593Z,28.68
2017-07-07T03:46:51.306Z,28.67
2017-07-07T03:47:51.649Z,28.67
2017-07-07T03:48:52.013Z,28.67
2017-07-07T03:49:52.023Z,28.7
2017-07-07T03:50:52.050Z,28.67
2017-07-07T03:51:52.087Z,28.68
2017-07-07T03:52:51.799Z,28.59
2017-07-07T03:53:51.833Z,28.67
2017-07-07T03:54:52.177Z,28.67
2017-07-07T03:55:51.894Z,28.64
2017-07-07T03:56:51.926Z,28.67
2017-07-07T03:57:51.947Z,28.66
2017-07-07T03:58:51.985Z,28.64
2017-07-07T03:59:52.006Z,28.64
2017-07-07T04:00:52.043Z,28.66
2017-07-07T04:01:52.387Z,28.54
2017-07-07T04:02:52.420Z,28.59
2017-07-07T04:03:52.453Z,28.61
2017-07-07T04:04:52.161Z,28.61
2017-07-07T04:05:52.506Z,28.56
2017-07-07T04:06:52.532Z,28.54
2017-07-07T04:07:52.257Z,28.58
2017-07-07T04:08:52.284Z,28.56
2017-07-07T04:09:51.994Z,28.59
2017-07-07T04:10:52.040Z,28.55
2017-07-07T04:11:52.691Z,28.46
2017-07-07T04:12:52.716Z,28.59
2017-07-07T04:13:52.425Z,28.54
2017-07-07T04:14:52.466Z,28.56
2017-07-07T04:15:52.810Z,28.51
2017-07-07T04:16:52.839Z,28.52
2017-07-07T04:17:52.872Z,28.54
2017-07-07T04:18:52.900Z,28.59
2017-07-07T04:19:52.935Z,28.54
2017-07-07T04:20:52.634Z,28.56
2017-07-07T04:21:52.987Z,28.44
2017-07-07T04:22:53.020Z,28.51
2017-07-07T04:23:53.057Z,28.54
2017-07-07T04:24:53.126Z,28.58
2017-07-07T04:25:52.786Z,28.56
2017-07-07T04:26:52.823Z,28.59
2017-07-07T04:27:53.168Z,28.55
2017-07-07T04:28:53.208Z,28.55
2017-07-07T04:29:53.240Z,28.48
2017-07-07T04:30:53.260Z,28.58
2017-07-07T04:31:52.655Z,28.64
2017-07-07T04:32:53.324Z,28.52
2017-07-07T04:33:53.036Z,28.52
2017-07-07T04:34:52.741Z,28.59
2017-07-07T04:35:53.091Z,28.55
2017-07-07T04:36:53.120Z,28.61
2017-07-07T04:37:53.468Z,28.54
2017-07-07T04:38:53.504Z,28.56
2017-07-07T04:39:53.530Z,28.61
2017-07-07T04:40:53.559Z,28.52
2017-07-07T04:41:53.589Z,28.52
2017-07-07T04:42:52.980Z,28.56
2017-07-07T04:43:53.338Z,28.59
2017-07-07T04:44:53.673Z,28.52
2017-07-07T04:45:53.715Z,28.56
2017-07-07T04:46:53.744Z,28.58
2017-07-07T04:47:53.769Z,28.61
2017-07-07T04:48:53.809Z,28.61
2017-07-07T04:49:53.830Z,28.62
2017-07-07T04:50:53.538Z,28.64
2017-07-07T04:51:53.566Z,28.62
2017-07-07T04:52:54.212Z,28.59
2017-07-07T04:53:53.314Z,28.62
2017-07-07T04:54:53.978Z,28.59
2017-07-07T04:55:54.008Z,28.59
2017-07-07T04:56:53.728Z,28.59
2017-07-07T04:57:54.320Z,28.54
2017-07-07T04:58:54.102Z,28.61
2017-07-07T04:59:53.819Z,28.59
2017-07-07T05:00:53.843Z,28.56
2017-07-07T05:01:54.185Z,28.54
2017-07-07T05:02:54.149Z,28.58
2017-07-07T05:03:54.254Z,28.54
2017-07-07T05:04:53.958Z,28.59
2017-07-07T05:05:53.984Z,28.64
2017-07-07T05:06:54.336Z,28.59
2017-07-07T05:07:54.674Z,28.61
2017-07-07T05:08:53.762Z,28.58
2017-07-07T05:09:53.794Z,28.55
2017-07-07T05:10:54.152Z,28.58
2017-07-07T05:11:54.177Z,28.62
2017-07-07T05:12:54.818Z,28.66
2017-07-07T05:13:54.226Z,28.64
2017-07-07T05:14:54.575Z,28.64
2017-07-07T05:15:54.291Z,28.66
2017-07-07T05:16:54.644Z,28.68
2017-07-07T05:17:54.922Z,28.61
2017-07-07T05:18:54.703Z,28.56
2017-07-07T05:19:54.411Z,28.56
2017-07-07T05:20:54.756Z,28.64
2017-07-07T05:21:54.476Z,28.62
2017-07-07T05:22:54.752Z,28.66
2017-07-07T05:23:54.526Z,28.62
2017-07-07T05:24:54.884Z,28.66
2017-07-07T05:25:54.583Z,28.67
2017-07-07T05:26:54.944Z,28.62
2017-07-07T05:27:54.949Z,28.66
2017-07-07T05:28:54.996Z,28.62
2017-07-07T05:29:54.708Z,28.68
2017-07-07T05:30:54.728Z,28.67
2017-07-07T05:31:54.769Z,28.67
2017-07-07T05:32:55.417Z,28.67
2017-07-07T05:33:54.822Z,28.68
2017-07-07T05:34:55.175Z,28.62
2017-07-07T05:35:54.893Z,28.7
2017-07-07T05:36:55.242Z,28.68
2017-07-07T05:37:54.946Z,28.67
2017-07-07T05:38:55.317Z,28.7
2017-07-07T05:39:55.009Z,28.74
2017-07-07T05:40:55.361Z,28.7
2017-07-07T05:41:55.074Z,28.67
2017-07-07T05:42:55.101Z,28.73
2017-07-07T05:43:55.122Z,28.68
2017-07-07T05:44:54.848Z,28.71
2017-07-07T05:45:54.872Z,28.76
2017-07-07T05:46:55.541Z,28.68
2017-07-07T05:47:55.254Z,28.7
2017-07-07T05:48:55.591Z,28.73
2017-07-07T05:49:55.315Z,28.74
2017-07-07T05:50:55.029Z,28.77
2017-07-07T05:51:55.378Z,28.77
2017-07-07T05:52:55.723Z,28.77
2017-07-07T05:53:55.115Z,28.73
2017-07-07T05:54:55.781Z,28.74
2017-07-07T05:55:55.812Z,28.71
2017-07-07T05:56:55.522Z,28.7
2017-07-07T05:57:55.878Z,28.76
2017-07-07T05:58:55.954Z,28.76
2017-07-07T05:59:55.945Z,28.8
2017-07-07T06:00:55.638Z,28.8
2017-07-07T06:01:55.672Z,28.78
2017-07-07T06:02:55.707Z,28.77
2017-07-07T06:03:55.737Z,28.83
2017-07-07T06:04:56.080Z,28.77
2017-07-07T06:05:56.113Z,28.8
2017-07-07T06:06:56.138Z,28.81
2017-07-07T06:07:56.175Z,28.86
2017-07-07T06:08:56.201Z,28.88
2017-07-07T06:09:56.233Z,28.8
2017-07-07T06:10:55.949Z,28.88
2017-07-07T06:11:56.290Z,28.83
2017-07-07T06:12:56.002Z,28.86
2017-07-07T06:13:56.324Z,28.83
2017-07-07T06:14:56.068Z,28.85
2017-07-07T06:15:56.093Z,28.89
2017-07-07T06:16:56.114Z,28.86
2017-07-07T06:17:56.483Z,28.85
2017-07-07T06:18:56.479Z,28.85
2017-07-07T06:19:56.533Z,28.81
2017-07-07T06:20:56.240Z,28.89
2017-07-07T06:21:56.270Z,28.9
2017-07-07T06:22:56.614Z,28.89
2017-07-07T06:23:56.308Z,28.88
2017-07-07T06:24:56.365Z,28.89
2017-07-07T06:25:56.714Z,28.9
2017-07-07T06:26:56.422Z,28.86
2017-07-07T06:27:56.791Z,28.86
2017-07-07T06:28:56.789Z,28.85
2017-07-07T06:29:56.839Z,28.88
2017-07-07T06:30:56.858Z,28.9
2017-07-07T06:31:56.895Z,28.88
2017-07-07T06:32:56.931Z,28.85
2017-07-07T06:33:56.648Z,28.85
2017-07-07T06:34:56.985Z,28.86
2017-07-07T06:35:56.693Z,28.81
2017-07-07T06:36:57.042Z,28.93
2017-07-07T06:37:56.755Z,28.86
2017-07-07T06:38:57.396Z,28.9
2017-07-07T06:39:57.137Z,28.88
2017-07-07T06:40:57.159Z,28.93
2017-07-07T06:41:57.195Z,28.96
2017-07-07T06:42:56.903Z,28.96
2017-07-07T06:43:57.549Z,28.9
2017-07-07T06:44:57.281Z,29.02
2017-07-07T06:45:56.665Z,28.9
2017-07-07T06:46:57.350Z,28.98
2017-07-07T06:47:57.433Z,28.96
2017-07-07T06:48:57.713Z,29.04
2017-07-07T06:49:57.429Z,28.95
2017-07-07T06:50:57.145Z,28.9
2017-07-07T06:51:57.179Z,28.96
2017-07-07T06:52:56.887Z,29
2017-07-07T06:53:57.484Z,29
2017-07-07T06:54:57.581Z,29.02
2017-07-07T06:55:57.302Z,29.05
2017-07-07T06:56:57.327Z,29.02
2017-07-07T06:57:57.355Z,28.9
2017-07-07T06:58:57.369Z,28.96
2017-07-07T06:59:57.417Z,29.08
2017-07-07T07:00:57.757Z,29.05
2017-07-07T07:01:57.787Z,28.93
2017-07-07T07:02:57.832Z,29.08
2017-07-07T07:03:58.105Z,29.08
2017-07-07T07:04:57.869Z,29.08
2017-07-07T07:05:57.606Z,29.02
2017-07-07T07:06:57.948Z,29.09
2017-07-07T07:07:57.981Z,29.11
2017-07-07T07:08:57.940Z,29.05
2017-07-07T07:09:57.722Z,29.12
2017-07-07T07:10:58.070Z,29.15
2017-07-07T07:11:58.099Z,29.08
2017-07-07T07:12:58.130Z,29.15
2017-07-07T07:13:58.409Z,29.12
2017-07-07T07:14:58.189Z,29.05
2017-07-07T07:15:58.221Z,29.15
2017-07-07T07:16:57.607Z,29.08
2017-07-07T07:17:57.952Z,29.18
2017-07-07T07:18:58.242Z,29.18
2017-07-07T07:19:58.022Z,29.19
2017-07-07T07:20:58.053Z,29.23
2017-07-07T07:21:58.403Z,29.16
2017-07-07T07:22:58.438Z,29.19
2017-07-07T07:23:58.709Z,29.16
2017-07-07T07:24:57.849Z,29.18
2017-07-07T07:25:58.191Z,29.18
2017-07-07T07:26:57.912Z,29.18
2017-07-07T07:27:57.945Z,29.16
2017-07-07T07:28:58.593Z,29.19
2017-07-07T07:29:58.658Z,29.21
2017-07-07T07:30:58.667Z,29.27
2017-07-07T07:31:58.704Z,29.24
2017-07-07T07:32:58.421Z,29.19
2017-07-07T07:33:58.698Z,29.16
2017-07-07T07:34:58.470Z,29.11
2017-07-07T07:35:58.507Z,29.21
2017-07-07T07:36:58.216Z,29.26
2017-07-07T07:37:58.905Z,29.24
2017-07-07T07:38:58.577Z,29.23
2017-07-07T07:39:58.945Z,29.23
2017-07-07T07:40:58.655Z,29.28
2017-07-07T07:41:58.688Z,29.26
2017-07-07T07:42:59.053Z,29.3
2017-07-07T07:43:59.309Z,29.34
2017-07-07T07:44:58.775Z,29.34
2017-07-07T07:45:59.131Z,29.33
2017-07-07T07:46:58.520Z,29.33
2017-07-07T07:47:58.549Z,29.36
2017-07-07T07:48:59.522Z,29.36
2017-07-07T07:49:58.935Z,29.41
2017-07-07T07:50:59.281Z,29.39
2017-07-07T07:51:58.672Z,29.36
2017-07-07T07:52:59.018Z,29.48
2017-07-07T07:53:59.054Z,29.37
2017-07-07T07:54:59.403Z,29.34
2017-07-07T07:55:59.116Z,29.39
2017-07-07T07:56:59.138Z,29.39
2017-07-07T07:57:59.494Z,29.43
2017-07-07T07:58:59.197Z,29.41
2017-07-07T07:59:59.559Z,29.42
2017-07-07T08:00:59.577Z,29.49
2017-07-07T08:01:59.300Z,29.43
2017-07-07T08:02:59.325Z,29.49
2017-07-07T08:03:59.390Z,29.48
2017-07-07T08:04:59.063Z,29.51
2017-07-07T08:05:59.732Z,29.55
2017-07-07T08:06:59.757Z,29.51
2017-07-07T08:07:59.479Z,29.51
2017-07-07T08:08:59.511Z,29.55
2017-07-07T08:09:59.860Z,29.61
2017-07-07T08:10:59.890Z,29.51
2017-07-07T08:11:59.598Z,29.51
2017-07-07T08:12:59.621Z,29.52
2017-07-07T08:13:59.659Z,29.57
2017-07-07T08:14:59.688Z,29.48
2017-07-07T08:16:00.052Z,29.48
2017-07-07T08:16:59.749Z,29.51
2017-07-07T08:18:00.098Z,29.6
2017-07-07T08:18:59.806Z,29.55
2017-07-07T08:19:59.840Z,29.6
2017-07-07T08:20:59.865Z,29.6
2017-07-07T08:22:00.258Z,29.48
2017-07-07T08:22:59.934Z,29.55
2017-07-07T08:24:00.267Z,29.6
2017-07-07T08:25:00.311Z,29.55
2017-07-07T08:26:00.012Z,29.55
2017-07-07T08:27:00.050Z,29.48
2017-07-07T08:28:00.395Z,29.6
2017-07-07T08:29:00.499Z,29.58
2017-07-07T08:30:00.147Z,29.57
2017-07-07T08:31:00.497Z,29.58
2017-07-07T08:32:00.530Z,29.6
2017-07-07T08:33:00.235Z,29.6
2017-07-07T08:34:00.271Z,29.49
2017-07-07T08:35:00.860Z,29.49
2017-07-07T08:36:00.325Z,29.48
2017-07-07T08:37:00.674Z,29.61
2017-07-07T08:38:00.711Z,29.58
2017-07-07T08:39:00.740Z,29.63
2017-07-07T08:40:00.696Z,29.45
2017-07-07T08:41:00.481Z,29.64
2017-07-07T08:42:00.828Z,29.55
2017-07-07T08:43:00.863Z,29.52
2017-07-07T08:44:00.576Z,29.51
2017-07-07T08:45:00.856Z,29.6
2017-07-07T08:46:00.938Z,29.65
2017-07-07T08:47:00.668Z,29.6
2017-07-07T08:48:01.015Z,29.57
2017-07-07T08:49:00.728Z,29.53
2017-07-07T08:50:01.008Z,29.63
2017-07-07T08:51:00.474Z,29.6
2017-07-07T08:52:01.139Z,29.53
2017-07-07T08:53:01.166Z,29.57
2017-07-07T08:54:01.195Z,29.61
2017-07-07T08:55:01.532Z,29.51
2017-07-07T08:56:01.258Z,29.52
2017-07-07T08:57:01.286Z,29.57
2017-07-07T08:58:00.682Z,29.58
2017-07-07T08:59:01.344Z,29.57
2017-07-07T09:00:01.629Z,29.55
2017-07-07T09:01:00.773Z,29.57
2017-07-07T09:02:00.811Z,29.6
2017-07-07T09:03:01.145Z,29.61
2017-07-07T09:04:01.512Z,29.48
2017-07-07T09:05:01.785Z,29.6
2017-07-07T09:06:01.554Z,29.55
2017-07-07T09:07:01.276Z,29.53
2017-07-07T09:08:01.305Z,29.51
2017-07-07T09:09:01.340Z,29.58
2017-07-07T09:10:01.939Z,29.64
2017-07-07T09:11:01.715Z,29.58
2017-07-07T09:12:01.743Z,29.61
2017-07-07T09:13:01.461Z,29.65
2017-07-07T09:14:01.497Z,29.57
2017-07-07T09:15:01.819Z,29.64
2017-07-07T09:16:01.550Z,29.61
2017-07-07T09:17:01.583Z,29.63
2017-07-07T09:18:01.296Z,29.61
2017-07-07T09:19:01.649Z,29.71
2017-07-07T09:20:01.912Z,29.71
2017-07-07T09:21:02.034Z,29.61
2017-07-07T09:22:02.043Z,29.6
2017-07-07T09:23:02.078Z,29.68
2017-07-07T09:24:01.793Z,29.65
2017-07-07T09:25:02.396Z,29.73
2017-07-07T09:26:02.180Z,29.67
2017-07-07T09:27:02.257Z,29.71
2017-07-07T09:28:01.920Z,29.73
2017-07-07T09:29:01.953Z,29.78
2017-07-07T09:30:01.666Z,29.78
2017-07-07T09:31:02.006Z,29.73
2017-07-07T09:32:01.724Z,29.73
2017-07-07T09:33:02.396Z,29.79
2017-07-07T09:34:02.096Z,29.74
2017-07-07T09:35:01.809Z,29.73
2017-07-07T09:36:02.487Z,29.73
2017-07-07T09:37:02.191Z,29.83
2017-07-07T09:38:02.548Z,29.82
2017-07-07T09:39:02.580Z,29.79
2017-07-07T09:40:02.609Z,29.85
2017-07-07T09:41:02.002Z,29.78
2017-07-07T09:42:02.351Z,29.74
2017-07-07T09:43:02.375Z,29.82
2017-07-07T09:44:02.410Z,29.83
2017-07-07T09:45:02.438Z,29.8
2017-07-07T09:46:02.403Z,29.89
2017-07-07T09:47:02.502Z,29.86
2017-07-07T09:48:02.529Z,29.8
2017-07-07T09:49:02.865Z,29.83
2017-07-07T09:50:02.905Z,29.89
2017-07-07T09:51:03.191Z,29.86
2017-07-07T09:52:02.977Z,29.85
2017-07-07T09:53:02.685Z,29.89
2017-07-07T09:54:02.722Z,29.94
2017-07-07T09:55:02.748Z,29.94
2017-07-07T09:56:03.083Z,29.87
2017-07-07T09:57:03.125Z,29.9
2017-07-07T09:58:02.834Z,29.9
2017-07-07T09:59:03.194Z,29.9
2017-07-07T10:00:02.902Z,29.97
2017-07-07T10:01:03.551Z,29.97
2017-07-07T10:02:02.652Z,29.9
2017-07-07T10:03:03.318Z,29.95
2017-07-07T10:04:03.025Z,29.98
2017-07-07T10:05:02.735Z,30
2017-07-07T10:06:03.340Z,30.02
2017-07-07T10:07:03.436Z,30
2017-07-07T10:08:03.149Z,30.04
2017-07-07T10:09:03.501Z,30.04
2017-07-07T10:10:03.210Z,30
2017-07-07T10:11:03.555Z,30.02
2017-07-07T10:12:03.272Z,30.08
2017-07-07T10:13:03.620Z,30.04
2017-07-07T10:14:03.681Z,29.97
2017-07-07T10:15:03.686Z,30.01
2017-07-07T10:16:03.649Z,30.01
2017-07-07T10:17:03.799Z,30
2017-07-07T10:18:03.781Z,30.13
2017-07-07T10:19:03.490Z,30.17
2017-07-07T10:20:03.848Z,30.1
2017-07-07T10:21:04.120Z,30.15
2017-07-07T10:22:03.897Z,30.15
2017-07-07T10:23:03.301Z,30.15
2017-07-07T10:24:03.643Z,30.1
2017-07-07T10:25:03.999Z,30.17
2017-07-07T10:26:04.280Z,30.13
2017-07-07T10:27:03.741Z,30.22
2017-07-07T10:28:04.081Z,30.16
2017-07-07T10:29:04.118Z,30.15
2017-07-07T10:30:03.835Z,30.17
2017-07-07T10:31:04.132Z,30.24
2017-07-07T10:32:04.213Z,30.22
2017-07-07T10:33:04.241Z,30.17
2017-07-07T10:34:04.274Z,30.31
2017-07-07T10:35:04.298Z,30.22
2017-07-07T10:36:03.944Z,30.22
2017-07-07T10:37:04.366Z,30.19
2017-07-07T10:38:04.130Z,30.29
2017-07-07T10:39:04.418Z,30.31
2017-07-07T10:40:04.143Z,30.31
2017-07-07T10:41:04.744Z,30.31
2017-07-07T10:42:04.521Z,30.32
2017-07-07T10:43:04.228Z,30.34
2017-07-07T10:44:04.267Z,30.31
2017-07-07T10:45:03.975Z,30.35
2017-07-07T10:46:04.888Z,30.34
2017-07-07T10:47:04.357Z,30.39
2017-07-07T10:48:04.070Z,30.37
2017-07-07T10:49:04.734Z,30.42
2017-07-07T10:50:04.448Z,30.46
2017-07-07T10:51:04.777Z,30.37
2017-07-07T10:52:04.821Z,30.43
2017-07-07T10:53:04.221Z,30.37
2017-07-07T10:54:04.570Z,30.42
2017-07-07T10:55:04.926Z,30.53
2017-07-07T10:56:04.888Z,30.43
2017-07-07T10:57:04.981Z,30.46
2017-07-07T10:58:04.697Z,30.46
2017-07-07T10:59:04.733Z,30.47
2017-07-07T11:00:05.084Z,30.42
2017-07-07T11:01:05.095Z,30.47
2017-07-07T11:02:04.827Z,30.51
2017-07-07T11:03:04.854Z,30.45
2017-07-07T11:04:04.882Z,30.49
2017-07-07T11:05:05.227Z,30.58
2017-07-07T11:06:05.248Z,30.49
2017-07-07T11:07:05.293Z,30.47
2017-07-07T11:08:05.009Z,30.54
2017-07-07T11:09:05.355Z,30.51
2017-07-07T11:10:05.392Z,30.57
2017-07-07T11:11:05.669Z,30.54
2017-07-07T11:12:05.450Z,30.6
2017-07-07T11:13:05.486Z,30.67
2017-07-07T11:14:05.566Z,30.7
2017-07-07T11:15:05.539Z,30.67
2017-07-07T11:16:05.880Z,30.64
2017-07-07T11:17:05.607Z,30.72
2017-07-07T11:18:05.630Z,30.58
2017-07-07T11:19:05.355Z,30.69
2017-07-07T11:20:05.381Z,30.67
2017-07-07T11:21:05.668Z,30.7
2017-07-07T11:22:05.450Z,30.76
2017-07-07T11:23:05.158Z,30.73
2017-07-07T11:24:05.503Z,30.79
2017-07-07T11:25:05.851Z,30.7
2017-07-07T11:26:06.188Z,30.73
2017-07-07T11:27:05.593Z,30.65
2017-07-07T11:28:05.947Z,30.72
2017-07-07T11:29:05.983Z,30.76
2017-07-07T11:30:06.021Z,30.76
2017-07-07T11:31:06.297Z,30.73
2017-07-07T11:32:05.758Z,30.73
2017-07-07T11:33:06.106Z,30.72
2017-07-07T11:34:06.148Z,30.88
2017-07-07T11:35:06.172Z,30.82
2017-07-07T11:36:06.450Z,30.76
2017-07-07T11:37:05.918Z,30.83
2017-07-07T11:38:06.265Z,30.88
2017-07-07T11:39:06.296Z,30.82
2017-07-07T11:40:06.003Z,30.79
2017-07-07T11:41:06.050Z,30.94
2017-07-07T11:42:06.069Z,30.99
2017-07-07T11:43:06.418Z,31.09
2017-07-07T11:44:06.451Z,31.13
2017-07-07T11:45:06.165Z,31.17
2017-07-07T11:46:06.521Z,31.29
2017-07-07T11:47:06.230Z,31.34
2017-07-07T11:48:06.250Z,31.41
2017-07-07T11:49:05.980Z,31.35
2017-07-07T11:50:06.653Z,31.34
2017-07-07T11:51:06.672Z,31.35
2017-07-07T11:52:06.710Z,31.34
2017-07-07T11:53:06.424Z,31.43
2017-07-07T11:54:06.796Z,31.34
2017-07-07T11:55:06.493Z,31.38
2017-07-07T11:56:06.838Z,31.43
2017-07-07T11:57:06.224Z,31.36
2017-07-07T11:58:06.583Z,31.36
2017-07-07T11:59:06.296Z,31.53
2017-07-07T12:00:06.637Z,31.53
2017-07-07T12:01:06.683Z,31.63
2017-07-07T12:02:07.275Z,31.75
2017-07-07T12:03:07.064Z,31.86
2017-07-07T12:04:06.773Z,31.93
2017-07-07T12:05:07.121Z,31.89
2017-07-07T12:06:07.162Z,32
2017-07-07T12:07:07.167Z,32.13
2017-07-07T12:08:07.220Z,32.13
2017-07-07T12:09:06.945Z,32.22
2017-07-07T12:10:07.285Z,32.28
2017-07-07T12:11:07.007Z,32.22
2017-07-07T12:12:07.344Z,32.37
2017-07-07T12:13:07.389Z,32.44
2017-07-07T12:14:07.426Z,32.47
2017-07-07T12:15:07.446Z,32.55
2017-07-07T12:16:07.171Z,32.5
2017-07-07T12:17:07.500Z,32.55
2017-07-07T12:18:07.555Z,32.7
2017-07-07T12:19:07.586Z,32.74
2017-07-07T12:20:07.624Z,32.75
2017-07-07T12:21:07.336Z,32.93
2017-07-07T12:22:07.995Z,33.04
2017-07-07T12:23:07.716Z,33.11
2017-07-07T12:24:07.762Z,33.11
2017-07-07T12:25:07.474Z,33.11
2017-07-07T12:26:07.511Z,33.12
2017-07-07T12:27:07.785Z,33.15
2017-07-07T12:28:07.565Z,33.19
2017-07-07T12:29:07.918Z,33.11
2017-07-07T12:30:07.639Z,33.11
2017-07-07T12:31:07.973Z,33.15
2017-07-07T12:32:08.277Z,33.06
2017-07-07T12:33:08.129Z,33.09
2017-07-07T12:34:08.090Z,33.14
2017-07-07T12:35:08.122Z,33.15
2017-07-07T12:36:07.835Z,33.28
2017-07-07T12:37:08.541Z,33.31
2017-07-07T12:38:08.293Z,33.38
2017-07-07T12:39:07.942Z,33.45
2017-07-07T12:40:07.976Z,33.59
2017-07-07T12:41:08.329Z,33.72
2017-07-07T12:42:08.288Z,33.76
2017-07-07T12:43:07.760Z,33.81
2017-07-07T12:44:07.790Z,33.81
2017-07-07T12:45:08.152Z,33.91
2017-07-07T12:46:08.176Z,33.88
2017-07-07T12:47:08.465Z,33.97
2017-07-07T12:48:08.246Z,33.98
2017-07-07T12:49:08.275Z,34.15
2017-07-07T12:50:08.635Z,34.1
2017-07-07T12:51:08.347Z,34.1
2017-07-07T12:52:09.008Z,34.22
2017-07-07T12:53:08.742Z,34.3
2017-07-07T12:54:08.453Z,34.39
2017-07-07T12:55:08.495Z,34.4
2017-07-07T12:56:08.844Z,34.39